createdAt,value
2018-12-09T00:00:56.432Z,9.70
2018-12-09T00:03:40.221Z,9.80
2018-12-09T00:06:24.570Z,9.80
2018-12-09T00:09:07.049Z,9.80
2018-12-09T00:11:50.847Z,9.90
2018-12-09T00:14:32.900Z,9.90
2018-12-09T00:17:15.152Z,9.90
2018-12-09T00:19:57.248Z,9.90
2018-12-09T00:22:39.022Z,9.90
2018-12-09T00:25:20.930Z,9.90
2018-12-09T00:28:03.002Z,9.90
2018-12-09T00:30:44.845Z,9.90
2018-12-09T00:33:26.987Z,9.90
2018-12-09T00:36:09.121Z,10.00
2018-12-09T00:38:51.231Z,9.90
2018-12-09T00:41:33.553Z,9.90
2018-12-09T00:44:15.510Z,9.90
2018-12-09T00:46:57.321Z,9.80
2018-12-09T00:49:39.394Z,9.80
2018-12-09T00:52:21.267Z,9.80
2018-12-09T00:55:03.287Z,9.80
2018-12-09T00:57:45.292Z,9.70
2018-12-09T01:00:27.249Z,9.70
2018-12-09T01:03:09.497Z,9.70
2018-12-09T01:05:51.333Z,9.70
2018-12-09T01:08:33.572Z,9.70
2018-12-09T01:11:15.374Z,9.80
2018-12-09T01:13:57.306Z,9.80
2018-12-09T01:16:39.456Z,9.80
2018-12-09T01:19:21.314Z,9.70
2018-12-09T01:22:03.353Z,9.70
2018-12-09T01:24:45.597Z,9.70
2018-12-09T01:27:27.781Z,9.80
2018-12-09T01:30:10.044Z,9.80
2018-12-09T01:32:51.570Z,9.80
2018-12-09T01:35:33.709Z,9.80
2018-12-09T01:38:15.573Z,9.90
2018-12-09T01:40:57.812Z,9.90
2018-12-09T01:43:39.881Z,9.90
2018-12-09T01:46:21.993Z,9.90
2018-12-09T01:49:04.265Z,9.90
2018-12-09T01:51:45.930Z,9.90
2018-12-09T01:54:28.963Z,9.90
2018-12-09T01:57:11.165Z,10.00
2018-12-09T01:59:52.827Z,9.90
2018-12-09T02:02:34.957Z,9.90
2018-12-09T02:05:16.855Z,9.90
2018-12-09T02:07:58.869Z,9.80
2018-12-09T02:10:40.858Z,9.80
2018-12-09T02:13:22.971Z,9.80
2018-12-09T02:16:04.977Z,9.80
2018-12-09T02:18:50.797Z,9.80
2018-12-09T02:21:33.290Z,9.80
2018-12-09T02:24:15.671Z,9.80
2018-12-09T02:26:59.186Z,9.80
2018-12-09T02:29:41.173Z,9.70
2018-12-09T02:32:23.098Z,9.60
2018-12-09T02:35:06.142Z,9.60
2018-12-09T02:37:48.177Z,9.60
2018-12-09T02:40:29.967Z,9.60
2018-12-09T02:43:11.946Z,9.60
2018-12-09T02:45:54.038Z,9.70
2018-12-09T02:48:35.993Z,9.70
2018-12-09T02:51:18.912Z,9.80
2018-12-09T02:54:01.278Z,9.80
2018-12-09T02:56:42.987Z,9.80
2018-12-09T02:59:24.881Z,9.80
2018-12-09T03:02:07.286Z,9.80
2018-12-09T03:04:51.087Z,9.80
2018-12-09T03:07:33.179Z,9.70
2018-12-09T03:10:15.058Z,9.70
2018-12-09T03:12:57.235Z,9.60
2018-12-09T03:15:53.714Z,9.60
2018-12-09T03:18:36.117Z,9.60
2018-12-09T03:21:18.252Z,9.60
2018-12-09T03:24:00.231Z,9.50
2018-12-09T03:26:42.231Z,9.50
2018-12-09T03:29:24.436Z,9.50
2018-12-09T03:32:06.362Z,9.50
2018-12-09T03:34:48.256Z,9.40
2018-12-09T03:37:30.510Z,9.40
2018-12-09T03:40:12.473Z,9.40
2018-12-09T03:42:54.563Z,9.30
2018-12-09T03:45:36.788Z,9.30
2018-12-09T03:48:18.728Z,9.20
2018-12-09T03:51:00.619Z,9.20
2018-12-09T03:53:42.450Z,9.20
2018-12-09T03:56:24.654Z,9.10
2018-12-09T03:59:06.706Z,9.10
2018-12-09T04:01:48.726Z,9.10
2018-12-09T04:04:30.757Z,9.10
2018-12-09T04:07:12.766Z,9.10
2018-12-09T04:09:54.939Z,9.10
2018-12-09T04:12:37.138Z,9.20
2018-12-09T04:15:19.308Z,9.20
2018-12-09T04:18:02.203Z,9.10
2018-12-09T04:20:44.397Z,9.10
2018-12-09T04:23:26.310Z,9.10
2018-12-09T04:26:09.529Z,9.00
2018-12-09T04:28:51.520Z,9.00
2018-12-09T04:31:33.549Z,9.10
2018-12-09T04:34:15.596Z,9.20
2018-12-09T04:36:57.657Z,9.20
2018-12-09T04:39:40.504Z,9.20
2018-12-09T04:42:22.733Z,9.20
2018-12-09T04:45:05.078Z,9.20
2018-12-09T04:47:46.899Z,9.20
2018-12-09T04:50:28.943Z,9.30
2018-12-09T04:53:11.074Z,9.30
2018-12-09T04:55:53.224Z,9.30
2018-12-09T04:58:35.361Z,9.40
2018-12-09T05:01:17.249Z,9.40
2018-12-09T05:03:59.330Z,9.40
2018-12-09T05:06:41.236Z,9.40
2018-12-09T05:09:23.444Z,9.40
2018-12-09T05:12:05.483Z,9.50
2018-12-09T05:14:47.563Z,9.40
2018-12-09T05:17:29.624Z,9.50
2018-12-09T05:20:11.930Z,9.50
2018-12-09T05:22:53.665Z,9.50
2018-12-09T05:25:35.917Z,9.60
2018-12-09T05:28:17.898Z,9.50
2018-12-09T05:31:00.101Z,9.60
2018-12-09T05:33:42.074Z,9.60
2018-12-09T05:36:24.143Z,9.60
2018-12-09T05:39:06.814Z,9.60
2018-12-09T05:41:49.001Z,9.60
2018-12-09T05:44:31.954Z,9.60
2018-12-09T05:47:13.752Z,9.60
2018-12-09T05:49:55.856Z,9.70
2018-12-09T05:52:38.742Z,9.70
2018-12-09T05:55:20.925Z,9.70
2018-12-09T05:58:02.775Z,9.80
2018-12-09T06:00:44.986Z,9.70
2018-12-09T06:03:27.017Z,9.70
2018-12-09T06:06:08.913Z,9.70
2018-12-09T06:08:51.088Z,9.70
2018-12-09T06:11:33.218Z,9.70
2018-12-09T06:14:15.091Z,9.70
2018-12-09T06:16:57.209Z,9.70
2018-12-09T06:19:39.488Z,9.70
2018-12-09T06:22:21.633Z,9.70
2018-12-09T06:25:03.878Z,9.70
2018-12-09T06:27:47.087Z,9.60
2018-12-09T06:30:29.749Z,9.60
2018-12-09T06:33:11.976Z,9.60
2018-12-09T06:35:54.134Z,9.60
2018-12-09T06:38:35.992Z,9.60
2018-12-09T06:41:18.275Z,9.60
2018-12-09T06:44:00.275Z,9.60
2018-12-09T06:46:42.139Z,9.60
2018-12-09T06:49:24.435Z,9.50
2018-12-09T06:52:06.408Z,9.50
2018-12-09T06:54:48.668Z,9.50
2018-12-09T06:57:30.521Z,9.50
2018-12-09T07:00:12.586Z,9.50
2018-12-09T07:02:54.330Z,9.50
2018-12-09T07:05:36.458Z,9.50
2018-12-09T07:08:18.205Z,9.60
2018-12-09T07:11:00.361Z,9.60
2018-12-09T07:13:42.117Z,9.60
2018-12-09T07:16:24.468Z,9.60
2018-12-09T07:19:06.326Z,9.60
2018-12-09T07:21:48.303Z,9.60
2018-12-09T07:24:30.200Z,9.60
2018-12-09T07:27:12.355Z,9.70
2018-12-09T07:30:01.875Z,9.70
2018-12-09T07:32:38.101Z,9.70
2018-12-09T07:35:20.118Z,9.80
2018-12-09T07:38:01.936Z,9.80
2018-12-09T07:40:43.774Z,9.90
2018-12-09T07:43:25.706Z,9.90
2018-12-09T07:46:07.942Z,9.90
2018-12-09T07:48:49.749Z,9.90
2018-12-09T07:51:31.765Z,9.90
2018-12-09T07:54:13.778Z,10.00
2018-12-09T07:56:55.734Z,10.00
2018-12-09T07:59:37.542Z,10.10
2018-12-09T08:02:19.631Z,10.10
2018-12-09T08:05:01.790Z,10.10
2018-12-09T08:07:43.785Z,10.20
2018-12-09T08:10:25.814Z,10.20
2018-12-09T08:13:07.671Z,10.20
2018-12-09T08:15:49.702Z,10.20
2018-12-09T08:18:31.642Z,10.20
2018-12-09T08:21:13.783Z,10.20
2018-12-09T08:23:55.824Z,10.20
2018-12-09T08:26:38.034Z,10.20
2018-12-09T08:29:19.957Z,10.20
2018-12-09T08:32:01.757Z,10.20
2018-12-09T08:34:44.795Z,10.20
2018-12-09T08:37:26.533Z,10.20
2018-12-09T08:40:08.503Z,10.20
2018-12-09T08:42:50.463Z,10.20
2018-12-09T08:45:32.217Z,10.20
2018-12-09T08:48:14.097Z,10.10
2018-12-09T08:50:56.205Z,10.00
2018-12-09T08:53:38.399Z,9.80
2018-12-09T08:56:20.402Z,9.70
2018-12-09T08:59:02.432Z,9.50
2018-12-09T09:01:44.309Z,9.40
2018-12-09T09:04:26.601Z,9.40
2018-12-09T09:07:08.793Z,9.30
2018-12-09T09:09:50.746Z,9.30
2018-12-09T09:12:32.598Z,9.20
2018-12-09T09:15:14.631Z,9.20
2018-12-09T09:17:56.767Z,9.10
2018-12-09T09:20:38.566Z,9.00
2018-12-09T09:23:20.831Z,8.90
2018-12-09T09:26:02.810Z,8.80
2018-12-09T09:28:44.820Z,8.70
2018-12-09T09:31:26.782Z,8.60
2018-12-09T09:34:08.747Z,8.60
2018-12-09T09:36:50.801Z,8.50
2018-12-09T09:39:33.730Z,8.50
2018-12-09T09:42:15.662Z,8.60
2018-12-09T09:44:57.483Z,8.60
2018-12-09T09:47:39.745Z,8.70
2018-12-09T09:50:21.718Z,8.70
2018-12-09T09:53:03.617Z,8.80
2018-12-09T09:55:45.571Z,8.70
2018-12-09T09:58:27.569Z,8.80
2018-12-09T10:01:09.489Z,8.80
2018-12-09T10:03:51.807Z,8.90
2018-12-09T10:06:33.871Z,9.00
2018-12-09T10:09:15.578Z,9.20
2018-12-09T10:11:57.878Z,9.30
2018-12-09T10:14:39.931Z,9.30
2018-12-09T10:17:21.918Z,9.40
2018-12-09T10:20:04.082Z,9.50
2018-12-09T10:22:45.797Z,9.50
2018-12-09T10:25:27.884Z,9.60
2018-12-09T10:28:10.014Z,9.70
2018-12-09T10:30:51.926Z,9.70
2018-12-09T10:33:34.083Z,9.70
2018-12-09T10:36:16.110Z,9.70
2018-12-09T10:38:58.230Z,9.70
2018-12-09T10:41:40.363Z,9.70
2018-12-09T10:44:22.446Z,9.70
2018-12-09T10:47:04.642Z,9.60
2018-12-09T10:49:46.495Z,9.70
2018-12-09T10:52:28.303Z,9.70
2018-12-09T10:55:10.578Z,9.70
2018-12-09T10:57:52.334Z,9.70
2018-12-09T11:00:39.855Z,9.80
2018-12-09T11:03:21.373Z,9.90
2018-12-09T11:06:03.434Z,10.00
2018-12-09T11:08:45.689Z,10.10
2018-12-09T11:11:27.842Z,10.10
2018-12-09T11:14:09.807Z,10.10
2018-12-09T11:16:51.653Z,10.10
2018-12-09T11:19:33.845Z,10.20
2018-12-09T11:22:16.159Z,10.20
2018-12-09T11:24:58.018Z,10.20
2018-12-09T11:27:40.251Z,10.20
2018-12-09T11:30:22.331Z,10.10
2018-12-09T11:33:04.731Z,10.10
2018-12-09T11:35:46.811Z,10.10
2018-12-09T11:38:28.826Z,10.10
2018-12-09T11:41:10.867Z,10.10
2018-12-09T11:43:52.885Z,10.10
2018-12-09T11:46:34.961Z,10.00
2018-12-09T11:49:17.006Z,10.00
2018-12-09T11:51:58.897Z,10.10
2018-12-09T11:54:40.972Z,10.20
2018-12-09T11:57:23.049Z,10.20
2018-12-09T12:00:08.917Z,10.20
2018-12-09T12:02:51.137Z,10.20
2018-12-09T12:05:47.838Z,10.20
2018-12-09T12:08:30.284Z,10.10
2018-12-09T12:11:12.451Z,10.20
2018-12-09T12:13:54.434Z,10.30
2018-12-09T12:16:36.558Z,10.30
2018-12-09T12:19:18.610Z,10.50
2018-12-09T12:22:00.660Z,10.40
2018-12-09T12:24:42.870Z,10.30
2018-12-09T12:27:25.054Z,10.10
2018-12-09T12:30:07.295Z,10.10
2018-12-09T12:32:49.025Z,10.10
2018-12-09T12:35:31.200Z,10.20
2018-12-09T12:38:13.072Z,10.50
2018-12-09T12:40:55.255Z,10.60
2018-12-09T12:43:37.101Z,10.70
2018-12-09T12:46:19.413Z,10.70
2018-12-09T12:49:01.551Z,10.70
2018-12-09T12:51:43.135Z,10.60
2018-12-09T12:54:25.457Z,10.40
2018-12-09T12:57:07.609Z,10.10
2018-12-09T12:59:49.331Z,10.00
2018-12-09T13:02:31.537Z,10.30
2018-12-09T13:05:13.729Z,10.70
2018-12-09T13:07:55.535Z,10.50
2018-12-09T13:10:37.206Z,10.40
2018-12-09T13:13:19.377Z,10.10
2018-12-09T13:16:01.207Z,10.10
2018-12-09T13:18:43.150Z,10.30
2018-12-09T13:21:24.900Z,10.30
2018-12-09T13:24:06.847Z,10.90
2018-12-09T13:26:48.784Z,12.10
2018-12-09T13:29:31.097Z,13.50
2018-12-09T13:32:13.057Z,14.90
2018-12-09T13:34:55.418Z,16.20
2018-12-09T13:37:37.218Z,16.10
2018-12-09T13:40:19.325Z,14.80
2018-12-09T13:43:01.334Z,14.90
2018-12-09T13:45:43.462Z,16.20
2018-12-09T13:48:25.605Z,15.90
2018-12-09T13:51:07.630Z,14.90
2018-12-09T13:53:49.634Z,14.00
2018-12-09T13:56:31.830Z,13.70
2018-12-09T13:59:14.886Z,13.00
2018-12-09T14:01:56.834Z,12.70
2018-12-09T14:04:38.942Z,12.20
2018-12-09T14:07:20.713Z,11.70
2018-12-09T14:10:03.413Z,11.30
2018-12-09T14:12:44.837Z,11.00
2018-12-09T14:15:27.016Z,10.90
2018-12-09T14:18:09.148Z,11.50
2018-12-09T14:20:50.835Z,11.70
2018-12-09T14:23:33.045Z,11.40
2018-12-09T14:26:15.033Z,11.00
2018-12-09T14:28:58.815Z,10.60
2018-12-09T14:31:41.458Z,10.50
2018-12-09T14:34:23.159Z,10.30
2018-12-09T14:37:05.280Z,10.30
2018-12-09T14:39:47.245Z,10.40
2018-12-09T14:42:29.493Z,10.50
2018-12-09T14:45:11.814Z,10.50
2018-12-09T14:47:53.569Z,10.20
2018-12-09T14:50:35.711Z,10.00
2018-12-09T14:53:17.950Z,10.10
2018-12-09T14:56:00.200Z,10.90
2018-12-09T14:58:42.270Z,11.30
2018-12-09T15:01:24.478Z,11.00
2018-12-09T15:04:06.385Z,10.60
2018-12-09T15:06:48.415Z,10.20
2018-12-09T15:09:30.525Z,9.80
2018-12-09T15:12:13.087Z,9.60
2018-12-09T15:14:55.319Z,9.40
2018-12-09T15:17:37.357Z,9.30
2018-12-09T15:20:19.234Z,9.20
2018-12-09T15:23:01.432Z,9.10
2018-12-09T15:25:43.555Z,9.00
2018-12-09T15:28:25.845Z,8.90
2018-12-09T15:31:08.759Z,8.80
2018-12-09T15:33:50.941Z,8.70
2018-12-09T15:36:32.756Z,8.70
2018-12-09T15:39:14.941Z,8.70
2018-12-09T15:41:57.162Z,8.60
2018-12-09T15:44:39.358Z,8.50
2018-12-09T15:47:21.280Z,8.40
2018-12-09T15:50:03.489Z,8.40
2018-12-09T15:52:45.430Z,8.30
2018-12-09T15:55:27.360Z,8.30
2018-12-09T15:58:09.349Z,8.20
2018-12-09T16:00:55.923Z,8.20
2018-12-09T16:03:38.332Z,8.20
2018-12-09T16:06:20.438Z,8.10
2018-12-09T16:09:02.474Z,8.10
2018-12-09T16:11:45.925Z,8.00
2018-12-09T16:14:28.685Z,7.90
2018-12-09T16:17:10.878Z,7.90
2018-12-09T16:19:52.893Z,7.90
2018-12-09T16:22:34.903Z,7.90
2018-12-09T16:25:16.918Z,7.80
2018-12-09T16:27:58.961Z,7.70
2018-12-09T16:30:43.971Z,7.70
2018-12-09T16:33:25.749Z,7.60
2018-12-09T16:36:07.652Z,7.60
2018-12-09T16:38:49.609Z,7.50
2018-12-09T16:41:31.726Z,7.50
2018-12-09T16:44:13.712Z,7.50
2018-12-09T16:46:55.710Z,7.40
2018-12-09T16:49:38.041Z,7.30
2018-12-09T16:52:19.978Z,7.30
2018-12-09T16:55:01.973Z,7.30
2018-12-09T16:57:44.026Z,7.30
2018-12-09T17:00:26.010Z,7.30
2018-12-09T17:03:07.983Z,7.30
2018-12-09T17:05:49.999Z,7.30
2018-12-09T17:08:32.273Z,7.30
2018-12-09T17:11:14.252Z,7.30
2018-12-09T17:13:56.637Z,7.20
2018-12-09T17:16:38.678Z,7.20
2018-12-09T17:19:20.884Z,7.10
2018-12-09T17:22:02.795Z,7.10
2018-12-09T17:24:44.912Z,7.00
2018-12-09T17:27:28.701Z,7.00
2018-12-09T17:30:10.783Z,6.90
2018-12-09T17:32:52.827Z,7.00
2018-12-09T17:35:34.867Z,7.00
2018-12-09T17:38:16.933Z,7.00
2018-12-09T17:40:59.194Z,6.90
2018-12-09T17:43:41.170Z,6.80
2018-12-09T17:46:23.466Z,6.80
2018-12-09T17:49:05.229Z,6.80
2018-12-09T17:51:47.434Z,6.70
2018-12-09T17:54:29.409Z,6.70
2018-12-09T17:57:42.219Z,6.70
2018-12-09T18:00:23.854Z,6.80
2018-12-09T18:03:06.007Z,6.90
2018-12-09T18:05:47.922Z,6.90
2018-12-09T18:08:29.704Z,6.80
2018-12-09T18:11:12.791Z,6.90
2018-12-09T18:13:54.962Z,6.90
2018-12-09T18:16:36.982Z,7.00
2018-12-09T18:19:19.203Z,6.90
2018-12-09T18:22:01.322Z,6.90
2018-12-09T18:24:43.424Z,6.80
2018-12-09T18:27:25.317Z,6.80
2018-12-09T18:30:07.402Z,6.80
2018-12-09T18:32:49.253Z,6.70
2018-12-09T18:35:31.530Z,6.70
2018-12-09T18:38:13.586Z,6.70
2018-12-09T18:40:55.754Z,6.70
2018-12-09T18:43:37.437Z,6.70
2018-12-09T18:46:19.615Z,6.70
2018-12-09T18:49:01.650Z,6.80
2018-12-09T18:51:43.569Z,6.80
2018-12-09T18:54:25.522Z,6.80
2018-12-09T18:57:07.713Z,6.90
2018-12-09T18:59:50.767Z,7.00
2018-12-09T19:02:33.038Z,7.10
2018-12-09T19:05:14.686Z,7.10
2018-12-09T19:07:57.429Z,7.10
2018-12-09T19:10:39.113Z,7.10
2018-12-09T19:13:21.006Z,7.10
2018-12-09T19:16:02.844Z,7.10
2018-12-09T19:18:44.974Z,7.10
2018-12-09T19:21:26.919Z,7.10
2018-12-09T19:24:09.100Z,7.10
2018-12-09T19:26:50.914Z,7.10
2018-12-09T19:29:33.265Z,7.10
2018-12-09T19:32:15.186Z,7.10
2018-12-09T19:34:57.340Z,7.00
2018-12-09T19:37:39.137Z,7.00
2018-12-09T19:40:21.369Z,7.00
2018-12-09T19:43:03.390Z,7.00
2018-12-09T19:45:45.444Z,7.00
2018-12-09T19:48:27.453Z,7.00
2018-12-09T19:51:09.697Z,7.00
2018-12-09T19:53:51.598Z,7.00
2018-12-09T19:56:33.555Z,7.00
2018-12-09T19:59:15.641Z,7.00
2018-12-09T20:01:57.530Z,6.90
2018-12-09T20:04:39.543Z,6.90
2018-12-09T20:07:21.734Z,6.90
2018-12-09T20:10:04.134Z,6.80
2018-12-09T20:12:46.072Z,6.90
2018-12-09T20:15:28.011Z,6.90
2018-12-09T20:18:10.060Z,6.80
2018-12-09T20:20:51.810Z,6.80
2018-12-09T20:23:33.966Z,6.70
2018-12-09T20:26:15.807Z,6.80
2018-12-09T20:28:57.871Z,6.80
2018-12-09T20:31:39.872Z,6.80
2018-12-09T20:34:21.810Z,6.80
2018-12-09T20:37:03.824Z,6.80
2018-12-09T20:39:45.905Z,6.70
2018-12-09T20:42:28.077Z,6.70
2018-12-09T20:45:10.564Z,6.70
2018-12-09T20:47:53.718Z,6.70
2018-12-09T20:50:35.828Z,6.80
2018-12-09T20:53:18.021Z,6.80
2018-12-09T20:55:59.914Z,6.90
2018-12-09T20:58:41.837Z,6.90
2018-12-09T21:01:23.884Z,6.80
2018-12-09T21:04:05.784Z,6.80
2018-12-09T21:06:47.702Z,6.70
2018-12-09T21:09:29.758Z,6.70
2018-12-09T21:12:11.906Z,6.70
2018-12-09T21:14:53.890Z,6.70
2018-12-09T21:17:35.932Z,6.70
2018-12-09T21:20:17.874Z,6.70
2018-12-09T21:22:59.778Z,6.80
2018-12-09T21:25:41.900Z,6.70
2018-12-09T21:28:24.064Z,6.60
2018-12-09T21:31:06.264Z,6.40
2018-12-09T21:33:48.298Z,6.30
2018-12-09T21:36:30.282Z,6.20
2018-12-09T21:39:12.265Z,6.10
2018-12-09T21:41:53.963Z,6.00
2018-12-09T21:44:36.041Z,5.90
2018-12-09T21:47:17.778Z,5.80
2018-12-09T21:49:59.866Z,5.70
2018-12-09T21:52:42.019Z,5.70
2018-12-09T21:55:24.229Z,5.70
2018-12-09T21:58:06.266Z,5.60
2018-12-09T22:00:48.302Z,5.60
2018-12-09T22:03:30.214Z,5.50
2018-12-09T22:06:13.139Z,5.50
2018-12-09T22:08:55.247Z,5.50
2018-12-09T22:11:37.217Z,5.50
2018-12-09T22:14:19.394Z,5.60
2018-12-09T22:17:01.394Z,5.60
2018-12-09T22:19:43.470Z,5.60
2018-12-09T22:22:25.184Z,5.60
2018-12-09T22:25:07.260Z,5.50
2018-12-09T22:27:49.162Z,5.50
2018-12-09T22:30:31.278Z,5.50
2018-12-09T22:33:13.359Z,5.60
2018-12-09T22:35:55.320Z,5.60
2018-12-09T22:38:37.254Z,5.70
2018-12-09T22:41:19.265Z,5.80
2018-12-09T22:44:01.499Z,5.80
2018-12-09T22:46:43.461Z,5.90
2018-12-09T22:49:25.313Z,6.00
2018-12-09T22:52:07.701Z,6.00
2018-12-09T22:54:49.838Z,6.00
2018-12-09T22:57:31.574Z,5.90
2018-12-09T23:00:23.829Z,6.00
2018-12-09T23:03:07.629Z,6.00
2018-12-09T23:05:49.882Z,6.10
2018-12-09T23:08:31.998Z,6.10
2018-12-09T23:11:14.988Z,6.10
2018-12-09T23:13:57.142Z,6.10
2018-12-09T23:16:39.203Z,6.10
2018-12-09T23:19:21.086Z,6.10
2018-12-09T23:22:03.202Z,6.20
2018-12-09T23:24:45.218Z,6.20
2018-12-09T23:27:27.397Z,6.20
2018-12-09T23:30:10.424Z,6.20
2018-12-09T23:32:52.118Z,6.20
2018-12-09T23:35:34.435Z,6.20
2018-12-09T23:38:16.435Z,6.10
2018-12-09T23:40:58.317Z,6.10
2018-12-09T23:43:40.195Z,6.00
2018-12-09T23:46:22.209Z,6.10
2018-12-09T23:49:04.143Z,6.10
2018-12-09T23:51:46.059Z,6.10
2018-12-09T23:54:28.090Z,6.10
2018-12-09T23:57:10.202Z,6.20
2018-12-09T23:59:52.076Z,6.20
